sensor_id;sensor_type;location;lat;lon;timestamp;temperature;humidity
52769;DHT22;40471;44.534;18.644;2023-07-29T00:01:36;21.60;99.90
52769;DHT22;40471;44.534;18.644;2023-07-29T00:04:02;21.50;99.90
52769;DHT22;40471;44.534;18.644;2023-07-29T00:06:28;21.60;99.90
52769;DHT22;40471;44.534;18.644;2023-07-29T00:08:53;21.50;99.90
52769;DHT22;40471;44.534;18.644;2023-07-29T00:11:19;21.60;99.90
52769;DHT22;40471;44.534;18.644;2023-07-29T00:13:45;21.50;99.90
52769;DHT22;40471;44.534;18.644;2023-07-29T00:16:10;21.50;99.90
52769;DHT22;40471;44.534;18.644;2023-07-29T00:18:36;21.40;99.90
52769;DHT22;40471;44.534;18.644;2023-07-29T00:21:01;21.40;99.90
52769;DHT22;40471;44.534;18.644;2023-07-29T00:23:27;21.40;99.90
52769;DHT22;40471;44.534;18.644;2023-07-29T00:25:52;21.40;99.90
52769;DHT22;40471;44.534;18.644;2023-07-29T00:28:18;21.30;99.90
52769;DHT22;40471;44.534;18.644;2023-07-29T00:30:44;21.30;99.90
52769;DHT22;40471;44.534;18.644;2023-07-29T00:33:09;21.20;99.90
52769;DHT22;40471;44.534;18.644;2023-07-29T00:35:35;21.10;99.90
52769;DHT22;40471;44.534;18.644;2023-07-29T00:38:01;21.10;99.90
52769;DHT22;40471;44.534;18.644;2023-07-29T00:40:27;21.10;99.90
52769;DHT22;40471;44.534;18.644;2023-07-29T00:42:53;21.10;99.90
52769;DHT22;40471;44.534;18.644;2023-07-29T00:45:19;21.10;99.90
52769;DHT22;40471;44.534;18.644;2023-07-29T00:47:45;21.10;99.90
52769;DHT22;40471;44.534;18.644;2023-07-29T00:50:11;21.00;99.90
52769;DHT22;40471;44.534;18.644;2023-07-29T00:52:37;21.10;99.90
52769;DHT22;40471;44.534;18.644;2023-07-29T00:55:03;21.00;99.90
52769;DHT22;40471;44.534;18.644;2023-07-29T00:57:29;21.00;99.90
52769;DHT22;40471;44.534;18.644;2023-07-29T00:59:55;21.00;99.90
52769;DHT22;40471;44.534;18.644;2023-07-29T01:02:21;21.10;99.90
52769;DHT22;40471;44.534;18.644;2023-07-29T01:04:51;21.10;99.90
52769;DHT22;40471;44.534;18.644;2023-07-29T01:12:27;21.10;99.90
52769;DHT22;40471;44.534;18.644;2023-07-29T01:15:07;21.00;99.90
52769;DHT22;40471;44.534;18.644;2023-07-29T01:18:18;21.00;99.90
52769;DHT22;40471;44.534;18.644;2023-07-29T01:20:24;20.90;99.90
52769;DHT22;40471;44.534;18.644;2023-07-29T01:22:50;20.80;99.90
52769;DHT22;40471;44.534;18.644;2023-07-29T01:25:16;20.90;99.90
52769;DHT22;40471;44.534;18.644;2023-07-29T01:27:43;20.80;99.90
52769;DHT22;40471;44.534;18.644;2023-07-29T01:30:08;20.70;99.90
52769;DHT22;40471;44.534;18.644;2023-07-29T01:35:07;20.70;99.90
52769;DHT22;40471;44.534;18.644;2023-07-29T01:37:34;20.70;99.90
52769;DHT22;40471;44.534;18.644;2023-07-29T01:40:02;20.60;99.90
52769;DHT22;40471;44.534;18.644;2023-07-29T01:42:28;20.50;99.90
52769;DHT22;40471;44.534;18.644;2023-07-29T01:44:54;20.50;99.90
52769;DHT22;40471;44.534;18.644;2023-07-29T01:47:20;20.50;99.90
52769;DHT22;40471;44.534;18.644;2023-07-29T01:49:47;20.50;99.90
52769;DHT22;40471;44.534;18.644;2023-07-29T01:52:13;20.50;99.90
52769;DHT22;40471;44.534;18.644;2023-07-29T01:54:38;20.40;99.90
52769;DHT22;40471;44.534;18.644;2023-07-29T01:57:04;20.50;99.90
52769;DHT22;40471;44.534;18.644;2023-07-29T01:59:30;20.50;99.90
52769;DHT22;40471;44.534;18.644;2023-07-29T02:01:55;20.50;99.90
52769;DHT22;40471;44.534;18.644;2023-07-29T02:04:21;20.50;99.90
52769;DHT22;40471;44.534;18.644;2023-07-29T02:06:47;20.50;99.90
52769;DHT22;40471;44.534;18.644;2023-07-29T02:09:13;20.50;99.90
52769;DHT22;40471;44.534;18.644;2023-07-29T02:11:38;20.40;99.90
52769;DHT22;40471;44.534;18.644;2023-07-29T02:14:04;20.70;99.90
52769;DHT22;40471;44.534;18.644;2023-07-29T02:16:29;20.40;99.90
52769;DHT22;40471;44.534;18.644;2023-07-29T02:18:55;20.40;99.90
52769;DHT22;40471;44.534;18.644;2023-07-29T02:21:21;20.30;99.90
52769;DHT22;40471;44.534;18.644;2023-07-29T02:23:46;20.30;99.90
52769;DHT22;40471;44.534;18.644;2023-07-29T02:26:12;20.20;99.90
52769;DHT22;40471;44.534;18.644;2023-07-29T02:28:38;20.20;99.90
52769;DHT22;40471;44.534;18.644;2023-07-29T02:31:22;20.20;99.90
52769;DHT22;40471;44.534;18.644;2023-07-29T02:33:48;20.10;99.90
52769;DHT22;40471;44.534;18.644;2023-07-29T02:36:14;20.10;99.90
52769;DHT22;40471;44.534;18.644;2023-07-29T02:38:40;20.20;99.90
52769;DHT22;40471;44.534;18.644;2023-07-29T02:41:06;20.00;99.90
52769;DHT22;40471;44.534;18.644;2023-07-29T02:43:34;20.00;99.90
52769;DHT22;40471;44.534;18.644;2023-07-29T02:45:59;20.00;99.90
52769;DHT22;40471;44.534;18.644;2023-07-29T02:48:25;19.30;99.90
52769;DHT22;40471;44.534;18.644;2023-07-29T02:50:51;20.00;99.90
52769;DHT22;40471;44.534;18.644;2023-07-29T02:53:17;20.00;99.90
52769;DHT22;40471;44.534;18.644;2023-07-29T02:55:42;20.10;99.90
52769;DHT22;40471;44.534;18.644;2023-07-29T02:58:08;20.10;99.90
52769;DHT22;40471;44.534;18.644;2023-07-29T03:00:34;20.10;99.90
52769;DHT22;40471;44.534;18.644;2023-07-29T03:02:59;20.00;99.90
52769;DHT22;40471;44.534;18.644;2023-07-29T03:05:28;19.60;99.90
52769;DHT22;40471;44.534;18.644;2023-07-29T03:07:54;20.00;99.90
52769;DHT22;40471;44.534;18.644;2023-07-29T03:10:19;20.10;99.90
52769;DHT22;40471;44.534;18.644;2023-07-29T03:12:46;20.00;99.90
52769;DHT22;40471;44.534;18.644;2023-07-29T03:15:12;20.00;99.90
52769;DHT22;40471;44.534;18.644;2023-07-29T03:17:38;20.00;99.90
52769;DHT22;40471;44.534;18.644;2023-07-29T03:20:04;19.90;99.90
52769;DHT22;40471;44.534;18.644;2023-07-29T03:22:30;19.90;99.90
52769;DHT22;40471;44.534;18.644;2023-07-29T03:24:55;19.90;99.90
52769;DHT22;40471;44.534;18.644;2023-07-29T03:27:21;19.90;99.90
52769;DHT22;40471;44.534;18.644;2023-07-29T03:29:46;20.00;99.90
52769;DHT22;40471;44.534;18.644;2023-07-29T03:32:12;20.00;99.90
52769;DHT22;40471;44.534;18.644;2023-07-29T03:34:38;20.00;99.90
52769;DHT22;40471;44.534;18.644;2023-07-29T03:37:05;19.90;99.90
52769;DHT22;40471;44.534;18.644;2023-07-29T03:39:31;19.90;99.90
52769;DHT22;40471;44.534;18.644;2023-07-29T03:41:57;19.90;99.90
52769;DHT22;40471;44.534;18.644;2023-07-29T03:44:23;19.90;99.90
52769;DHT22;40471;44.534;18.644;2023-07-29T03:46:49;19.90;99.90
52769;DHT22;40471;44.534;18.644;2023-07-29T03:49:14;19.90;99.90
52769;DHT22;40471;44.534;18.644;2023-07-29T03:51:40;19.80;99.90
52769;DHT22;40471;44.534;18.644;2023-07-29T03:54:05;19.90;99.90
52769;DHT22;40471;44.534;18.644;2023-07-29T03:56:31;19.90;99.90
52769;DHT22;40471;44.534;18.644;2023-07-29T03:59:03;19.90;99.90
52769;DHT22;40471;44.534;18.644;2023-07-29T04:01:29;19.90;99.90
52769;DHT22;40471;44.534;18.644;2023-07-29T04:03:58;20.00;99.90
52769;DHT22;40471;44.534;18.644;2023-07-29T04:06:24;19.90;99.90
52769;DHT22;40471;44.534;18.644;2023-07-29T04:08:50;20.00;99.90
52769;DHT22;40471;44.534;18.644;2023-07-29T04:11:16;20.00;99.90
52769;DHT22;40471;44.534;18.644;2023-07-29T04:13:41;20.00;99.90
52769;DHT22;40471;44.534;18.644;2023-07-29T04:16:07;20.10;99.90
52769;DHT22;40471;44.534;18.644;2023-07-29T04:18:33;20.20;99.90
52769;DHT22;40471;44.534;18.644;2023-07-29T04:20:58;20.20;99.90
52769;DHT22;40471;44.534;18.644;2023-07-29T04:23:24;20.30;99.90
52769;DHT22;40471;44.534;18.644;2023-07-29T04:25:50;20.50;99.90
52769;DHT22;40471;44.534;18.644;2023-07-29T04:28:15;20.50;99.90
52769;DHT22;40471;44.534;18.644;2023-07-29T04:30:41;20.70;99.90
52769;DHT22;40471;44.534;18.644;2023-07-29T04:33:07;20.80;99.90
52769;DHT22;40471;44.534;18.644;2023-07-29T04:35:32;20.90;99.90
52769;DHT22;40471;44.534;18.644;2023-07-29T04:37:58;21.00;99.90
52769;DHT22;40471;44.534;18.644;2023-07-29T04:40:24;21.10;99.90
52769;DHT22;40471;44.534;18.644;2023-07-29T04:42:51;21.10;99.90
52769;DHT22;40471;44.534;18.644;2023-07-29T04:45:16;21.00;99.90
52769;DHT22;40471;44.534;18.644;2023-07-29T04:47:42;21.10;99.90
52769;DHT22;40471;44.534;18.644;2023-07-29T04:50:08;21.10;99.90
52769;DHT22;40471;44.534;18.644;2023-07-29T04:52:34;21.30;99.90
52769;DHT22;40471;44.534;18.644;2023-07-29T04:54:59;21.50;99.90
52769;DHT22;40471;44.534;18.644;2023-07-29T04:57:25;21.70;99.90
52769;DHT22;40471;44.534;18.644;2023-07-29T04:59:51;22.20;99.90
52769;DHT22;40471;44.534;18.644;2023-07-29T05:02:16;23.20;99.90
52769;DHT22;40471;44.534;18.644;2023-07-29T05:04:42;24.00;99.90
52769;DHT22;40471;44.534;18.644;2023-07-29T05:07:08;23.70;99.90
52769;DHT22;40471;44.534;18.644;2023-07-29T05:09:33;23.40;99.90
52769;DHT22;40471;44.534;18.644;2023-07-29T05:12:00;23.30;99.90
52769;DHT22;40471;44.534;18.644;2023-07-29T05:14:25;23.20;99.90
52769;DHT22;40471;44.534;18.644;2023-07-29T05:16:51;23.20;99.90
52769;DHT22;40471;44.534;18.644;2023-07-29T05:19:17;23.20;99.90
52769;DHT22;40471;44.534;18.644;2023-07-29T05:21:43;23.20;99.90
52769;DHT22;40471;44.534;18.644;2023-07-29T05:24:09;23.20;99.90
52769;DHT22;40471;44.534;18.644;2023-07-29T05:26:34;23.10;99.90
52769;DHT22;40471;44.534;18.644;2023-07-29T05:29:00;23.00;99.90
52769;DHT22;40471;44.534;18.644;2023-07-29T05:31:25;23.00;99.90
52769;DHT22;40471;44.534;18.644;2023-07-29T05:33:51;23.10;99.90
52769;DHT22;40471;44.534;18.644;2023-07-29T05:36:17;23.10;99.90
52769;DHT22;40471;44.534;18.644;2023-07-29T05:38:42;23.10;99.90
52769;DHT22;40471;44.534;18.644;2023-07-29T05:41:08;23.20;99.90
52769;DHT22;40471;44.534;18.644;2023-07-29T05:43:33;23.20;99.90
52769;DHT22;40471;44.534;18.644;2023-07-29T05:45:59;23.20;99.90
52769;DHT22;40471;44.534;18.644;2023-07-29T05:48:25;23.40;99.90
52769;DHT22;40471;44.534;18.644;2023-07-29T05:50:50;23.60;99.90
52769;DHT22;40471;44.534;18.644;2023-07-29T05:53:25;24.10;99.90
52769;DHT22;40471;44.534;18.644;2023-07-29T05:55:54;24.40;99.90
52769;DHT22;40471;44.534;18.644;2023-07-29T05:58:20;24.60;99.90
52769;DHT22;40471;44.534;18.644;2023-07-29T06:00:46;24.60;99.90
52769;DHT22;40471;44.534;18.644;2023-07-29T06:03:11;24.60;99.90
52769;DHT22;40471;44.534;18.644;2023-07-29T06:05:37;24.40;99.90
52769;DHT22;40471;44.534;18.644;2023-07-29T06:08:02;24.40;99.90
52769;DHT22;40471;44.534;18.644;2023-07-29T06:10:28;24.50;99.90
52769;DHT22;40471;44.534;18.644;2023-07-29T06:12:54;24.60;99.90
52769;DHT22;40471;44.534;18.644;2023-07-29T06:15:19;24.80;99.90
52769;DHT22;40471;44.534;18.644;2023-07-29T06:17:48;25.00;99.90
52769;DHT22;40471;44.534;18.644;2023-07-29T06:20:13;25.90;99.90
52769;DHT22;40471;44.534;18.644;2023-07-29T06:22:39;28.40;99.90
52769;DHT22;40471;44.534;18.644;2023-07-29T06:25:05;30.00;99.90
52769;DHT22;40471;44.534;18.644;2023-07-29T06:27:30;30.50;99.90
52769;DHT22;40471;44.534;18.644;2023-07-29T06:29:56;31.10;99.90
52769;DHT22;40471;44.534;18.644;2023-07-29T06:32:21;32.70;99.90
52769;DHT22;40471;44.534;18.644;2023-07-29T06:34:47;34.70;95.80
52769;DHT22;40471;44.534;18.644;2023-07-29T06:37:13;35.40;89.90
52769;DHT22;40471;44.534;18.644;2023-07-29T06:39:38;35.80;85.00
52769;DHT22;40471;44.534;18.644;2023-07-29T06:42:04;36.20;82.60
52769;DHT22;40471;44.534;18.644;2023-07-29T06:44:29;36.70;78.10
52769;DHT22;40471;44.534;18.644;2023-07-29T06:46:55;35.60;77.10
52769;DHT22;40471;44.534;18.644;2023-07-29T06:49:22;35.30;79.60
52769;DHT22;40471;44.534;18.644;2023-07-29T06:51:48;35.50;78.00
52769;DHT22;40471;44.534;18.644;2023-07-29T06:54:15;35.40;78.00
52769;DHT22;40471;44.534;18.644;2023-07-29T06:56:41;34.50;79.30
52769;DHT22;40471;44.534;18.644;2023-07-29T06:59:07;34.30;81.60
52769;DHT22;40471;44.534;18.644;2023-07-29T07:01:33;34.40;82.10
52769;DHT22;40471;44.534;18.644;2023-07-29T07:03:59;34.30;80.90
52769;DHT22;40471;44.534;18.644;2023-07-29T07:06:24;34.10;81.90
52769;DHT22;40471;44.534;18.644;2023-07-29T07:08:50;33.60;82.90
52769;DHT22;40471;44.534;18.644;2023-07-29T07:11:16;34.00;84.70
52769;DHT22;40471;44.534;18.644;2023-07-29T07:13:41;34.80;80.40
52769;DHT22;40471;44.534;18.644;2023-07-29T07:16:07;35.90;78.40
52769;DHT22;40471;44.534;18.644;2023-07-29T07:18:33;38.00;77.50
52769;DHT22;40471;44.534;18.644;2023-07-29T07:20:58;39.90;70.60
52769;DHT22;40471;44.534;18.644;2023-07-29T07:23:24;40.60;68.30
52769;DHT22;40471;44.534;18.644;2023-07-29T07:25:49;41.80;64.60
52769;DHT22;40471;44.534;18.644;2023-07-29T07:28:15;42.60;63.80
52769;DHT22;40471;44.534;18.644;2023-07-29T07:30:41;43.40;61.90
52769;DHT22;40471;44.534;18.644;2023-07-29T07:33:07;42.80;59.50
52769;DHT22;40471;44.534;18.644;2023-07-29T07:35:32;42.10;59.20
52769;DHT22;40471;44.534;18.644;2023-07-29T07:37:58;42.30;59.70
52769;DHT22;40471;44.534;18.644;2023-07-29T07:40:24;43.00;59.30
52769;DHT22;40471;44.534;18.644;2023-07-29T07:42:52;43.70;57.60
52769;DHT22;40471;44.534;18.644;2023-07-29T07:45:17;44.00;57.30
52769;DHT22;40471;44.534;18.644;2023-07-29T07:47:43;44.80;56.10
52769;DHT22;40471;44.534;18.644;2023-07-29T07:50:09;44.60;55.70
52769;DHT22;40471;44.534;18.644;2023-07-29T07:52:34;44.60;53.80
52769;DHT22;40471;44.534;18.644;2023-07-29T07:55:00;44.70;53.60
52769;DHT22;40471;44.534;18.644;2023-07-29T07:57:25;45.00;53.20
52769;DHT22;40471;44.534;18.644;2023-07-29T07:59:51;45.00;52.10
52769;DHT22;40471;44.534;18.644;2023-07-29T08:02:18;45.10;53.20
52769;DHT22;40471;44.534;18.644;2023-07-29T08:04:43;45.20;53.20
52769;DHT22;40471;44.534;18.644;2023-07-29T08:07:09;45.10;53.30
52769;DHT22;40471;44.534;18.644;2023-07-29T08:09:34;45.20;54.10
52769;DHT22;40471;44.534;18.644;2023-07-29T08:12:00;45.30;53.30
52769;DHT22;40471;44.534;18.644;2023-07-29T08:14:26;45.20;51.80
52769;DHT22;40471;44.534;18.644;2023-07-29T08:16:52;44.80;51.50
52769;DHT22;40471;44.534;18.644;2023-07-29T08:19:17;44.60;51.80
52769;DHT22;40471;44.534;18.644;2023-07-29T08:21:43;44.20;52.50
52769;DHT22;40471;44.534;18.644;2023-07-29T08:24:08;44.10;51.50
52769;DHT22;40471;44.534;18.644;2023-07-29T08:26:34;43.90;50.90
52769;DHT22;40471;44.534;18.644;2023-07-29T08:29:00;43.80;52.30
52769;DHT22;40471;44.534;18.644;2023-07-29T08:31:25;43.90;51.30
52769;DHT22;40471;44.534;18.644;2023-07-29T08:33:51;43.50;52.60
52769;DHT22;40471;44.534;18.644;2023-07-29T08:36:17;43.70;53.90
52769;DHT22;40471;44.534;18.644;2023-07-29T08:38:42;43.70;52.60
52769;DHT22;40471;44.534;18.644;2023-07-29T08:41:25;43.90;51.10
52769;DHT22;40471;44.534;18.644;2023-07-29T08:43:54;43.80;51.30
52769;DHT22;40471;44.534;18.644;2023-07-29T08:46:21;43.80;51.30
52769;DHT22;40471;44.534;18.644;2023-07-29T08:48:47;43.30;51.30
52769;DHT22;40471;44.534;18.644;2023-07-29T08:51:13;43.30;50.50
52769;DHT22;40471;44.534;18.644;2023-07-29T08:53:39;43.20;52.00
52769;DHT22;40471;44.534;18.644;2023-07-29T08:56:06;43.30;51.20
52769;DHT22;40471;44.534;18.644;2023-07-29T08:58:32;43.50;50.60
52769;DHT22;40471;44.534;18.644;2023-07-29T09:00:57;43.30;49.70
52769;DHT22;40471;44.534;18.644;2023-07-29T09:03:23;43.00;50.10
52769;DHT22;40471;44.534;18.644;2023-07-29T09:05:49;43.00;49.70
52769;DHT22;40471;44.534;18.644;2023-07-29T09:08:15;42.70;50.40
52769;DHT22;40471;44.534;18.644;2023-07-29T09:10:41;42.90;50.60
52769;DHT22;40471;44.534;18.644;2023-07-29T09:13:07;43.10;49.30
52769;DHT22;40471;44.534;18.644;2023-07-29T09:15:34;43.00;49.90
52769;DHT22;40471;44.534;18.644;2023-07-29T09:18:00;42.90;51.60
52769;DHT22;40471;44.534;18.644;2023-07-29T09:20:33;42.90;50.20
52769;DHT22;40471;44.534;18.644;2023-07-29T09:22:59;42.80;49.00
52769;DHT22;40471;44.534;18.644;2023-07-29T09:25:25;42.90;49.10
52769;DHT22;40471;44.534;18.644;2023-07-29T09:27:51;42.80;50.30
52769;DHT22;40471;44.534;18.644;2023-07-29T09:30:17;42.80;47.40
52769;DHT22;40471;44.534;18.644;2023-07-29T09:32:43;42.70;48.20
52769;DHT22;40471;44.534;18.644;2023-07-29T09:35:12;42.50;47.20
52769;DHT22;40471;44.534;18.644;2023-07-29T09:37:38;42.20;49.10
52769;DHT22;40471;44.534;18.644;2023-07-29T09:40:04;42.30;48.40
52769;DHT22;40471;44.534;18.644;2023-07-29T09:42:30;42.60;47.30
52769;DHT22;40471;44.534;18.644;2023-07-29T09:44:56;42.70;48.60
52769;DHT22;40471;44.534;18.644;2023-07-29T09:47:22;43.00;48.80
52769;DHT22;40471;44.534;18.644;2023-07-29T09:49:48;43.30;48.40
52769;DHT22;40471;44.534;18.644;2023-07-29T09:52:14;43.30;48.10
52769;DHT22;40471;44.534;18.644;2023-07-29T09:54:40;43.40;48.30
52769;DHT22;40471;44.534;18.644;2023-07-29T09:57:07;43.50;47.80
52769;DHT22;40471;44.534;18.644;2023-07-29T09:59:36;43.30;47.00
52769;DHT22;40471;44.534;18.644;2023-07-29T10:02:01;43.10;48.40
52769;DHT22;40471;44.534;18.644;2023-07-29T10:04:27;43.10;47.50
52769;DHT22;40471;44.534;18.644;2023-07-29T10:06:54;42.70;48.30
52769;DHT22;40471;44.534;18.644;2023-07-29T10:09:20;42.60;48.50
52769;DHT22;40471;44.534;18.644;2023-07-29T10:11:46;42.30;49.80
52769;DHT22;40471;44.534;18.644;2023-07-29T10:14:12;42.10;49.00
52769;DHT22;40471;44.534;18.644;2023-07-29T10:16:39;41.80;48.70
52769;DHT22;40471;44.534;18.644;2023-07-29T10:19:05;41.90;50.50
52769;DHT22;40471;44.534;18.644;2023-07-29T10:21:32;42.10;51.10
52769;DHT22;40471;44.534;18.644;2023-07-29T10:23:59;42.20;49.50
52769;DHT22;40471;44.534;18.644;2023-07-29T10:26:26;41.70;50.20
52769;DHT22;40471;44.534;18.644;2023-07-29T10:28:53;41.40;49.70
52769;DHT22;40471;44.534;18.644;2023-07-29T10:31:20;41.80;49.30
52769;DHT22;40471;44.534;18.644;2023-07-29T10:33:48;42.00;50.80
52769;DHT22;40471;44.534;18.644;2023-07-29T10:36:13;42.10;48.60
52769;DHT22;40471;44.534;18.644;2023-07-29T10:38:39;42.20;49.40
52769;DHT22;40471;44.534;18.644;2023-07-29T10:41:06;42.00;49.70
52769;DHT22;40471;44.534;18.644;2023-07-29T10:43:32;42.10;49.70
52769;DHT22;40471;44.534;18.644;2023-07-29T10:46:14;42.40;48.90
52769;DHT22;40471;44.534;18.644;2023-07-29T10:54:48;42.30;49.80
52769;DHT22;40471;44.534;18.644;2023-07-29T10:57:14;42.20;48.50
52769;DHT22;40471;44.534;18.644;2023-07-29T10:59:55;42.10;49.20
52769;DHT22;40471;44.534;18.644;2023-07-29T11:02:22;42.40;49.30
52769;DHT22;40471;44.534;18.644;2023-07-29T11:04:53;42.40;49.40
52769;DHT22;40471;44.534;18.644;2023-07-29T11:07:19;42.20;49.30
52769;DHT22;40471;44.534;18.644;2023-07-29T11:14:59;42.10;48.80
52769;DHT22;40471;44.534;18.644;2023-07-29T11:17:26;42.20;51.00
52769;DHT22;40471;44.534;18.644;2023-07-29T11:19:51;42.20;49.90
52769;DHT22;40471;44.534;18.644;2023-07-29T11:22:18;42.10;49.70
52769;DHT22;40471;44.534;18.644;2023-07-29T11:24:43;41.90;48.60
52769;DHT22;40471;44.534;18.644;2023-07-29T11:27:12;42.00;49.50
52769;DHT22;40471;44.534;18.644;2023-07-29T11:29:37;41.70;49.70
52769;DHT22;40471;44.534;18.644;2023-07-29T11:32:03;41.50;49.10
52769;DHT22;40471;44.534;18.644;2023-07-29T11:34:32;41.50;49.10
52769;DHT22;40471;44.534;18.644;2023-07-29T11:36:57;41.70;50.00
52769;DHT22;40471;44.534;18.644;2023-07-29T11:39:23;41.70;49.20
52769;DHT22;40471;44.534;18.644;2023-07-29T11:41:49;41.70;51.00
52769;DHT22;40471;44.534;18.644;2023-07-29T11:44:17;41.70;50.10
52769;DHT22;40471;44.534;18.644;2023-07-29T11:46:43;41.40;49.80
52769;DHT22;40471;44.534;18.644;2023-07-29T11:49:09;41.20;50.50
52769;DHT22;40471;44.534;18.644;2023-07-29T11:51:36;41.00;51.00
52769;DHT22;40471;44.534;18.644;2023-07-29T11:54:01;40.80;49.60
52769;DHT22;40471;44.534;18.644;2023-07-29T11:56:27;41.00;49.40
52769;DHT22;40471;44.534;18.644;2023-07-29T11:58:54;41.10;50.20
52769;DHT22;40471;44.534;18.644;2023-07-29T12:01:20;41.10;50.20
52769;DHT22;40471;44.534;18.644;2023-07-29T12:03:46;40.90;50.10
52769;DHT22;40471;44.534;18.644;2023-07-29T12:06:12;40.90;51.50
52769;DHT22;40471;44.534;18.644;2023-07-29T12:08:38;41.00;50.90
52769;DHT22;40471;44.534;18.644;2023-07-29T12:11:03;41.10;49.90
52769;DHT22;40471;44.534;18.644;2023-07-29T12:13:29;41.00;49.50
52769;DHT22;40471;44.534;18.644;2023-07-29T12:16:00;40.90;50.40
52769;DHT22;40471;44.534;18.644;2023-07-29T12:18:30;41.00;50.60
52769;DHT22;40471;44.534;18.644;2023-07-29T12:20:56;41.30;51.20
52769;DHT22;40471;44.534;18.644;2023-07-29T12:23:25;41.30;50.00
52769;DHT22;40471;44.534;18.644;2023-07-29T12:25:59;41.00;51.10
52769;DHT22;40471;44.534;18.644;2023-07-29T12:28:25;40.80;50.00
52769;DHT22;40471;44.534;18.644;2023-07-29T12:30:57;40.60;49.90
52769;DHT22;40471;44.534;18.644;2023-07-29T12:33:31;40.40;49.70
52769;DHT22;40471;44.534;18.644;2023-07-29T12:35:57;40.60;50.30
52769;DHT22;40471;44.534;18.644;2023-07-29T12:38:25;40.70;51.30
52769;DHT22;40471;44.534;18.644;2023-07-29T12:40:51;40.30;50.50
52769;DHT22;40471;44.534;18.644;2023-07-29T12:43:16;39.90;51.50
52769;DHT22;40471;44.534;18.644;2023-07-29T12:45:42;40.00;51.80
52769;DHT22;40471;44.534;18.644;2023-07-29T12:48:09;40.10;52.00
52769;DHT22;40471;44.534;18.644;2023-07-29T12:50:35;40.00;51.00
52769;DHT22;40471;44.534;18.644;2023-07-29T12:53:00;39.90;51.20
52769;DHT22;40471;44.534;18.644;2023-07-29T12:55:26;39.90;52.40
52769;DHT22;40471;44.534;18.644;2023-07-29T12:57:52;40.00;51.60
52769;DHT22;40471;44.534;18.644;2023-07-29T13:00:17;40.00;51.80
52769;DHT22;40471;44.534;18.644;2023-07-29T13:02:43;40.00;51.70
52769;DHT22;40471;44.534;18.644;2023-07-29T13:05:09;40.20;51.30
52769;DHT22;40471;44.534;18.644;2023-07-29T13:07:36;40.10;51.80
52769;DHT22;40471;44.534;18.644;2023-07-29T13:10:02;39.60;51.80
52769;DHT22;40471;44.534;18.644;2023-07-29T13:12:28;39.20;52.50
52769;DHT22;40471;44.534;18.644;2023-07-29T13:14:54;39.00;52.20
52769;DHT22;40471;44.534;18.644;2023-07-29T13:17:20;38.70;52.40
52769;DHT22;40471;44.534;18.644;2023-07-29T13:19:47;38.70;52.40
52769;DHT22;40471;44.534;18.644;2023-07-29T13:22:12;38.70;53.00
52769;DHT22;40471;44.534;18.644;2023-07-29T13:24:38;38.60;52.70
52769;DHT22;40471;44.534;18.644;2023-07-29T13:27:04;38.70;53.10
52769;DHT22;40471;44.534;18.644;2023-07-29T13:29:29;38.70;53.00
52769;DHT22;40471;44.534;18.644;2023-07-29T13:31:55;38.60;54.30
52769;DHT22;40471;44.534;18.644;2023-07-29T13:34:21;38.50;53.80
52769;DHT22;40471;44.534;18.644;2023-07-29T13:36:47;38.40;53.30
52769;DHT22;40471;44.534;18.644;2023-07-29T13:39:12;38.20;53.30
52769;DHT22;40471;44.534;18.644;2023-07-29T13:41:38;37.80;54.20
52769;DHT22;40471;44.534;18.644;2023-07-29T13:44:04;37.60;54.80
52769;DHT22;40471;44.534;18.644;2023-07-29T13:46:29;37.60;54.20
52769;DHT22;40471;44.534;18.644;2023-07-29T13:48:55;37.60;55.50
52769;DHT22;40471;44.534;18.644;2023-07-29T13:51:20;37.40;55.30
52769;DHT22;40471;44.534;18.644;2023-07-29T13:53:46;36.80;56.90
52769;DHT22;40471;44.534;18.644;2023-07-29T13:56:12;36.70;55.90
52769;DHT22;40471;44.534;18.644;2023-07-29T13:58:37;36.50;56.80
52769;DHT22;40471;44.534;18.644;2023-07-29T14:01:03;36.20;56.80
52769;DHT22;40471;44.534;18.644;2023-07-29T14:03:28;35.90;57.50
52769;DHT22;40471;44.534;18.644;2023-07-29T14:05:54;35.70;57.40
52769;DHT22;40471;44.534;18.644;2023-07-29T14:08:19;35.50;57.20
52769;DHT22;40471;44.534;18.644;2023-07-29T14:10:45;35.40;58.60
52769;DHT22;40471;44.534;18.644;2023-07-29T14:13:11;35.50;58.30
52769;DHT22;40471;44.534;18.644;2023-07-29T14:15:36;35.40;57.50
52769;DHT22;40471;44.534;18.644;2023-07-29T14:18:02;35.40;58.00
52769;DHT22;40471;44.534;18.644;2023-07-29T14:20:28;35.40;57.70
52769;DHT22;40471;44.534;18.644;2023-07-29T14:22:53;35.30;57.90
52769;DHT22;40471;44.534;18.644;2023-07-29T14:25:19;35.20;57.40
52769;DHT22;40471;44.534;18.644;2023-07-29T14:27:44;35.10;58.40
52769;DHT22;40471;44.534;18.644;2023-07-29T14:30:10;35.20;58.90
52769;DHT22;40471;44.534;18.644;2023-07-29T14:32:36;35.20;59.30
52769;DHT22;40471;44.534;18.644;2023-07-29T14:35:03;35.20;59.10
52769;DHT22;40471;44.534;18.644;2023-07-29T14:37:29;35.00;58.30
52769;DHT22;40471;44.534;18.644;2023-07-29T14:39:56;34.90;58.90
52769;DHT22;40471;44.534;18.644;2023-07-29T14:42:22;34.80;59.60
52769;DHT22;40471;44.534;18.644;2023-07-29T14:44:48;34.70;60.20
52769;DHT22;40471;44.534;18.644;2023-07-29T14:47:13;34.60;59.80
52769;DHT22;40471;44.534;18.644;2023-07-29T14:49:39;34.50;60.10
52769;DHT22;40471;44.534;18.644;2023-07-29T14:52:05;34.50;60.10
52769;DHT22;40471;44.534;18.644;2023-07-29T14:54:31;34.50;59.90
52769;DHT22;40471;44.534;18.644;2023-07-29T14:56:57;34.50;61.20
52769;DHT22;40471;44.534;18.644;2023-07-29T14:59:22;34.50;60.80
52769;DHT22;40471;44.534;18.644;2023-07-29T15:01:48;34.50;60.50
52769;DHT22;40471;44.534;18.644;2023-07-29T15:04:14;34.50;59.90
52769;DHT22;40471;44.534;18.644;2023-07-29T15:06:39;34.40;60.00
52769;DHT22;40471;44.534;18.644;2023-07-29T15:09:05;34.40;61.10
52769;DHT22;40471;44.534;18.644;2023-07-29T15:11:31;34.30;60.90
52769;DHT22;40471;44.534;18.644;2023-07-29T15:13:59;34.20;61.50
52769;DHT22;40471;44.534;18.644;2023-07-29T15:16:25;34.20;61.50
52769;DHT22;40471;44.534;18.644;2023-07-29T15:18:51;34.20;62.00
52769;DHT22;40471;44.534;18.644;2023-07-29T15:21:17;34.20;61.30
52769;DHT22;40471;44.534;18.644;2023-07-29T15:23:43;34.20;61.90
52769;DHT22;40471;44.534;18.644;2023-07-29T15:26:09;34.20;61.50
52769;DHT22;40471;44.534;18.644;2023-07-29T15:28:34;34.20;62.10